sensor_id;sensor_type;location;lat;lon;timestamp;P1;durP1;ratioP1;P2;durP2;ratioP2
15608;SDS011;64278;45.642;13.756;2023-02-15T00:01:42;12.60;;;11.60;;
15608;SDS011;64278;45.642;13.756;2023-02-15T00:04:09;13.93;;;12.63;;
15608;SDS011;64278;45.642;13.756;2023-02-15T00:06:37;13.35;;;12.15;;
15608;SDS011;64278;45.642;13.756;2023-02-15T00:09:03;13.25;;;12.10;;
15608;SDS011;64278;45.642;13.756;2023-02-15T00:11:29;13.70;;;12.40;;
15608;SDS011;64278;45.642;13.756;2023-02-15T00:14:20;13.90;;;12.70;;
15608;SDS011;64278;45.642;13.756;2023-02-15T00:16:48;12.25;;;11.20;;
15608;SDS011;64278;45.642;13.756;2023-02-15T00:19:16;12.15;;;11.05;;
15608;SDS011;64278;45.642;13.756;2023-02-15T00:21:43;12.45;;;11.35;;
15608;SDS011;64278;45.642;13.756;2023-02-15T00:24:10;12.10;;;11.10;;
15608;SDS011;64278;45.642;13.756;2023-02-15T00:26:37;12.15;;;11.15;;
15608;SDS011;64278;45.642;13.756;2023-02-15T00:29:04;11.60;;;10.55;;
15608;SDS011;64278;45.642;13.756;2023-02-15T00:31:30;12.23;;;11.10;;
15608;SDS011;64278;45.642;13.756;2023-02-15T00:34:30;12.05;;;11.05;;
15608;SDS011;64278;45.642;13.756;2023-02-15T00:36:50;11.85;;;10.80;;
15608;SDS011;64278;45.642;13.756;2023-02-15T00:39:17;12.25;;;11.23;;
15608;SDS011;64278;45.642;13.756;2023-02-15T00:41:43;12.30;;;11.13;;
15608;SDS011;64278;45.642;13.756;2023-02-15T00:44:09;12.38;;;11.27;;
15608;SDS011;64278;45.642;13.756;2023-02-15T00:46:35;11.75;;;10.75;;
15608;SDS011;64278;45.642;13.756;2023-02-15T00:49:01;10.23;;;9.40;;
15608;SDS011;64278;45.642;13.756;2023-02-15T00:51:27;11.68;;;10.68;;
15608;SDS011;64278;45.642;13.756;2023-02-15T00:53:53;11.15;;;10.25;;
15608;SDS011;64278;45.642;13.756;2023-02-15T00:56:19;12.77;;;11.27;;
15608;SDS011;64278;45.642;13.756;2023-02-15T00:58:45;11.40;;;10.40;;
15608;SDS011;64278;45.642;13.756;2023-02-15T01:01:12;11.07;;;10.18;;
15608;SDS011;64278;45.642;13.756;2023-02-15T01:03:40;11.52;;;10.50;;
15608;SDS011;64278;45.642;13.756;2023-02-15T01:06:09;12.38;;;11.32;;
15608;SDS011;64278;45.642;13.756;2023-02-15T01:08:35;12.57;;;11.48;;
15608;SDS011;64278;45.642;13.756;2023-02-15T01:11:21;11.77;;;10.73;;
15608;SDS011;64278;45.642;13.756;2023-02-15T01:13:52;12.15;;;11.05;;
15608;SDS011;64278;45.642;13.756;2023-02-15T01:16:19;11.75;;;10.55;;
15608;SDS011;64278;45.642;13.756;2023-02-15T01:18:46;14.05;;;12.75;;
15608;SDS011;64278;45.642;13.756;2023-02-15T01:21:13;12.30;;;11.20;;
15608;SDS011;64278;45.642;13.756;2023-02-15T01:23:41;12.00;;;11.00;;
15608;SDS011;64278;45.642;13.756;2023-02-15T01:26:07;11.60;;;10.65;;
15608;SDS011;64278;45.642;13.756;2023-02-15T01:28:34;12.73;;;11.52;;
15608;SDS011;64278;45.642;13.756;2023-02-15T01:31:04;11.98;;;10.88;;
15608;SDS011;64278;45.642;13.756;2023-02-15T01:33:39;11.43;;;10.52;;
15608;SDS011;64278;45.642;13.756;2023-02-15T01:36:05;11.93;;;10.93;;
15608;SDS011;64278;45.642;13.756;2023-02-15T01:38:32;12.75;;;11.65;;
15608;SDS011;64278;45.642;13.756;2023-02-15T01:40:59;12.57;;;11.38;;
15608;SDS011;64278;45.642;13.756;2023-02-15T01:43:51;12.02;;;10.98;;
15608;SDS011;64278;45.642;13.756;2023-02-15T01:46:19;11.25;;;10.35;;
15608;SDS011;64278;45.642;13.756;2023-02-15T01:48:48;12.30;;;11.30;;
15608;SDS011;64278;45.642;13.756;2023-02-15T01:51:20;12.20;;;11.10;;
15608;SDS011;64278;45.642;13.756;2023-02-15T01:53:50;11.15;;;10.25;;
15608;SDS011;64278;45.642;13.756;2023-02-15T01:56:25;12.20;;;11.20;;
15608;SDS011;64278;45.642;13.756;2023-02-15T01:58:55;11.70;;;10.70;;
15608;SDS011;64278;45.642;13.756;2023-02-15T02:01:23;11.85;;;10.85;;
15608;SDS011;64278;45.642;13.756;2023-02-15T02:03:58;12.00;;;11.00;;
15608;SDS011;64278;45.642;13.756;2023-02-15T02:06:32;12.45;;;11.45;;
15608;SDS011;64278;45.642;13.756;2023-02-15T02:09:00;11.70;;;10.65;;
15608;SDS011;64278;45.642;13.756;2023-02-15T02:11:27;12.10;;;11.10;;
15608;SDS011;64278;45.642;13.756;2023-02-15T02:13:52;12.43;;;11.32;;
15608;SDS011;64278;45.642;13.756;2023-02-15T02:16:21;11.95;;;10.95;;
15608;SDS011;64278;45.642;13.756;2023-02-15T02:21:55;11.68;;;10.73;;
15608;SDS011;64278;45.642;13.756;2023-02-15T02:37:52;11.63;;;10.63;;
15608;SDS011;64278;45.642;13.756;2023-02-15T02:46:29;11.82;;;10.85;;
15608;SDS011;64278;45.642;13.756;2023-02-15T02:49:02;12.30;;;11.10;;
15608;SDS011;64278;45.642;13.756;2023-02-15T02:51:28;11.73;;;10.82;;
15608;SDS011;64278;45.642;13.756;2023-02-15T02:53:54;11.93;;;10.98;;
15608;SDS011;64278;45.642;13.756;2023-02-15T02:56:26;11.55;;;10.55;;
15608;SDS011;64278;45.642;13.756;2023-02-15T02:58:56;12.93;;;11.75;;
15608;SDS011;64278;45.642;13.756;2023-02-15T03:01:32;12.70;;;11.65;;
15608;SDS011;64278;45.642;13.756;2023-02-15T03:04:00;12.35;;;11.35;;
15608;SDS011;64278;45.642;13.756;2023-02-15T03:06:56;12.68;;;11.63;;
15608;SDS011;64278;45.642;13.756;2023-02-15T03:11:59;13.98;;;12.77;;
15608;SDS011;64278;45.642;13.756;2023-02-15T03:14:26;12.40;;;11.40;;
15608;SDS011;64278;45.642;13.756;2023-02-15T03:16:52;11.82;;;10.82;;
15608;SDS011;64278;45.642;13.756;2023-02-15T03:19:21;11.02;;;10.18;;
15608;SDS011;64278;45.642;13.756;2023-02-15T03:21:51;13.15;;;12.05;;
15608;SDS011;64278;45.642;13.756;2023-02-15T03:27:25;12.65;;;11.65;;
15608;SDS011;64278;45.642;13.756;2023-02-15T03:29:57;11.98;;;11.05;;
15608;SDS011;64278;45.642;13.756;2023-02-15T03:32:25;12.45;;;11.45;;
15608;SDS011;64278;45.642;13.756;2023-02-15T03:34:52;12.20;;;11.20;;
15608;SDS011;64278;45.642;13.756;2023-02-15T03:40:04;12.13;;;11.13;;
15608;SDS011;64278;45.642;13.756;2023-02-15T03:43:11;11.95;;;10.95;;
15608;SDS011;64278;45.642;13.756;2023-02-15T03:45:57;12.00;;;11.00;;
15608;SDS011;64278;45.642;13.756;2023-02-15T03:48:32;12.48;;;11.27;;
15608;SDS011;64278;45.642;13.756;2023-02-15T03:51:20;11.30;;;10.32;;
15608;SDS011;64278;45.642;13.756;2023-02-15T03:54:20;12.57;;;11.43;;
15608;SDS011;64278;45.642;13.756;2023-02-15T03:57:27;12.32;;;11.38;;
15608;SDS011;64278;45.642;13.756;2023-02-15T04:00:16;12.40;;;11.40;;
15608;SDS011;64278;45.642;13.756;2023-02-15T04:05:57;11.73;;;10.63;;
15608;SDS011;64278;45.642;13.756;2023-02-15T04:08:24;12.00;;;10.90;;
15608;SDS011;64278;45.642;13.756;2023-02-15T04:11:10;11.60;;;10.57;;
15608;SDS011;64278;45.642;13.756;2023-02-15T04:13:35;11.25;;;10.35;;
15608;SDS011;64278;45.642;13.756;2023-02-15T04:16:01;10.60;;;9.70;;
15608;SDS011;64278;45.642;13.756;2023-02-15T04:21:14;12.63;;;11.52;;
15608;SDS011;64278;45.642;13.756;2023-02-15T04:23:59;11.00;;;10.07;;
15608;SDS011;64278;45.642;13.756;2023-02-15T04:26:43;11.85;;;10.80;;
15608;SDS011;64278;45.642;13.756;2023-02-15T04:29:08;11.93;;;10.93;;
15608;SDS011;64278;45.642;13.756;2023-02-15T04:31:34;10.65;;;9.85;;
15608;SDS011;64278;45.642;13.756;2023-02-15T04:33:59;10.90;;;10.10;;
15608;SDS011;64278;45.642;13.756;2023-02-15T04:36:25;12.07;;;11.05;;
15608;SDS011;64278;45.642;13.756;2023-02-15T04:38:51;11.35;;;10.50;;
15608;SDS011;64278;45.642;13.756;2023-02-15T04:41:16;11.80;;;10.80;;
15608;SDS011;64278;45.642;13.756;2023-02-15T04:43:42;11.45;;;10.55;;
15608;SDS011;64278;45.642;13.756;2023-02-15T04:46:08;11.10;;;10.30;;
15608;SDS011;64278;45.642;13.756;2023-02-15T04:48:33;11.10;;;10.20;;
15608;SDS011;64278;45.642;13.756;2023-02-15T04:50:59;10.77;;;9.85;;
15608;SDS011;64278;45.642;13.756;2023-02-15T04:53:29;11.60;;;10.60;;
15608;SDS011;64278;45.642;13.756;2023-02-15T04:55:55;11.43;;;10.43;;
15608;SDS011;64278;45.642;13.756;2023-02-15T04:58:20;11.45;;;10.63;;
15608;SDS011;64278;45.642;13.756;2023-02-15T05:00:46;11.45;;;10.45;;
15608;SDS011;64278;45.642;13.756;2023-02-15T05:03:12;10.95;;;10.05;;
15608;SDS011;64278;45.642;13.756;2023-02-15T05:05:37;12.10;;;11.00;;
15608;SDS011;64278;45.642;13.756;2023-02-15T05:08:03;11.75;;;10.70;;
15608;SDS011;64278;45.642;13.756;2023-02-15T05:10:28;10.07;;;9.27;;
15608;SDS011;64278;45.642;13.756;2023-02-15T05:12:54;10.88;;;9.98;;
15608;SDS011;64278;45.642;13.756;2023-02-15T05:15:20;12.02;;;11.02;;
15608;SDS011;64278;45.642;13.756;2023-02-15T05:17:45;10.73;;;9.90;;
15608;SDS011;64278;45.642;13.756;2023-02-15T05:20:11;10.98;;;10.18;;
15608;SDS011;64278;45.642;13.756;2023-02-15T05:22:37;11.73;;;10.73;;
15608;SDS011;64278;45.642;13.756;2023-02-15T05:25:03;12.35;;;11.15;;
15608;SDS011;64278;45.642;13.756;2023-02-15T05:27:47;11.60;;;10.60;;
15608;SDS011;64278;45.642;13.756;2023-02-15T05:30:31;12.23;;;11.20;;
15608;SDS011;64278;45.642;13.756;2023-02-15T05:32:57;11.68;;;10.75;;
15608;SDS011;64278;45.642;13.756;2023-02-15T05:35:23;11.35;;;10.35;;
15608;SDS011;64278;45.642;13.756;2023-02-15T05:37:48;11.70;;;10.70;;
15608;SDS011;64278;45.642;13.756;2023-02-15T05:40:14;11.48;;;10.48;;
15608;SDS011;64278;45.642;13.756;2023-02-15T05:42:40;11.00;;;10.10;;
15608;SDS011;64278;45.642;13.756;2023-02-15T05:45:05;11.38;;;10.27;;
15608;SDS011;64278;45.642;13.756;2023-02-15T05:47:31;10.77;;;9.98;;
15608;SDS011;64278;45.642;13.756;2023-02-15T05:49:57;11.68;;;10.75;;
15608;SDS011;64278;45.642;13.756;2023-02-15T05:52:22;12.18;;;11.07;;
15608;SDS011;64278;45.642;13.756;2023-02-15T05:54:48;12.23;;;11.20;;
15608;SDS011;64278;45.642;13.756;2023-02-15T05:57:14;11.15;;;10.15;;
15608;SDS011;64278;45.642;13.756;2023-02-15T05:59:39;11.13;;;10.25;;
15608;SDS011;64278;45.642;13.756;2023-02-15T06:02:05;10.43;;;9.63;;
15608;SDS011;64278;45.642;13.756;2023-02-15T06:04:31;11.75;;;10.73;;
15608;SDS011;64278;45.642;13.756;2023-02-15T06:06:57;10.63;;;9.80;;
15608;SDS011;64278;45.642;13.756;2023-02-15T06:09:22;11.52;;;10.60;;
15608;SDS011;64278;45.642;13.756;2023-02-15T06:11:48;10.60;;;9.82;;
15608;SDS011;64278;45.642;13.756;2023-02-15T06:14:14;10.93;;;10.13;;
15608;SDS011;64278;45.642;13.756;2023-02-15T06:16:39;10.98;;;10.07;;
15608;SDS011;64278;45.642;13.756;2023-02-15T06:19:05;11.88;;;10.90;;
15608;SDS011;64278;45.642;13.756;2023-02-15T06:21:31;11.90;;;10.93;;
15608;SDS011;64278;45.642;13.756;2023-02-15T06:23:57;12.38;;;11.27;;
15608;SDS011;64278;45.642;13.756;2023-02-15T06:26:23;10.73;;;9.82;;
15608;SDS011;64278;45.642;13.756;2023-02-15T06:28:48;10.80;;;10.00;;
15608;SDS011;64278;45.642;13.756;2023-02-15T06:31:14;11.80;;;10.80;;
15608;SDS011;64278;45.642;13.756;2023-02-15T06:33:40;12.60;;;11.50;;
15608;SDS011;64278;45.642;13.756;2023-02-15T06:36:06;11.30;;;10.35;;
15608;SDS011;64278;45.642;13.756;2023-02-15T06:38:32;11.02;;;10.23;;
15608;SDS011;64278;45.642;13.756;2023-02-15T06:40:57;10.82;;;9.93;;
15608;SDS011;64278;45.642;13.756;2023-02-15T06:43:23;11.27;;;10.32;;
15608;SDS011;64278;45.642;13.756;2023-02-15T06:45:49;11.48;;;10.57;;
15608;SDS011;64278;45.642;13.756;2023-02-15T06:48:14;11.07;;;10.18;;
15608;SDS011;64278;45.642;13.756;2023-02-15T06:50:40;11.45;;;10.45;;
15608;SDS011;64278;45.642;13.756;2023-02-15T06:53:06;11.93;;;10.98;;
15608;SDS011;64278;45.642;13.756;2023-02-15T06:55:31;12.32;;;11.27;;
15608;SDS011;64278;45.642;13.756;2023-02-15T06:57:57;11.48;;;10.48;;
15608;SDS011;64278;45.642;13.756;2023-02-15T07:00:23;11.82;;;10.82;;
15608;SDS011;64278;45.642;13.756;2023-02-15T07:02:55;11.98;;;10.88;;
15608;SDS011;64278;45.642;13.756;2023-02-15T07:05:23;11.82;;;10.82;;
15608;SDS011;64278;45.642;13.756;2023-02-15T07:07:49;11.38;;;10.32;;
15608;SDS011;64278;45.642;13.756;2023-02-15T07:10:15;11.75;;;10.75;;
15608;SDS011;64278;45.642;13.756;2023-02-15T07:12:41;13.25;;;12.10;;
15608;SDS011;64278;45.642;13.756;2023-02-15T07:15:07;11.20;;;10.20;;
15608;SDS011;64278;45.642;13.756;2023-02-15T07:17:35;11.68;;;10.68;;
15608;SDS011;64278;45.642;13.756;2023-02-15T07:20:09;11.35;;;10.45;;
15608;SDS011;64278;45.642;13.756;2023-02-15T07:22:37;11.23;;;10.32;;
15608;SDS011;64278;45.642;13.756;2023-02-15T07:25:03;12.25;;;11.25;;
15608;SDS011;64278;45.642;13.756;2023-02-15T07:27:31;11.98;;;10.88;;
15608;SDS011;64278;45.642;13.756;2023-02-15T07:29:57;12.30;;;11.20;;
15608;SDS011;64278;45.642;13.756;2023-02-15T07:32:23;12.00;;;11.10;;
15608;SDS011;64278;45.642;13.756;2023-02-15T07:34:48;11.52;;;10.50;;
15608;SDS011;64278;45.642;13.756;2023-02-15T07:37:14;12.07;;;10.98;;
15608;SDS011;64278;45.642;13.756;2023-02-15T07:39:39;12.43;;;11.32;;
15608;SDS011;64278;45.642;13.756;2023-02-15T07:42:05;11.98;;;10.98;;
15608;SDS011;64278;45.642;13.756;2023-02-15T07:44:31;13.05;;;11.90;;
15608;SDS011;64278;45.642;13.756;2023-02-15T07:46:56;12.98;;;11.98;;
15608;SDS011;64278;45.642;13.756;2023-02-15T07:49:22;11.75;;;10.68;;
15608;SDS011;64278;45.642;13.756;2023-02-15T07:51:48;12.13;;;11.13;;
15608;SDS011;64278;45.642;13.756;2023-02-15T07:54:13;12.60;;;11.60;;
15608;SDS011;64278;45.642;13.756;2023-02-15T07:56:39;11.77;;;10.80;;
15608;SDS011;64278;45.642;13.756;2023-02-15T07:59:05;11.70;;;10.63;;
15608;SDS011;64278;45.642;13.756;2023-02-15T08:01:32;12.10;;;11.07;;
15608;SDS011;64278;45.642;13.756;2023-02-15T08:03:59;12.98;;;11.80;;
15608;SDS011;64278;45.642;13.756;2023-02-15T08:06:26;12.70;;;11.65;;
15608;SDS011;64278;45.642;13.756;2023-02-15T08:08:54;13.30;;;12.15;;
15608;SDS011;64278;45.642;13.756;2023-02-15T08:11:21;12.13;;;11.13;;
15608;SDS011;64278;45.642;13.756;2023-02-15T08:13:54;12.98;;;11.88;;
15608;SDS011;64278;45.642;13.756;2023-02-15T08:19:14;13.15;;;12.05;;
15608;SDS011;64278;45.642;13.756;2023-02-15T08:21:46;12.48;;;11.45;;
15608;SDS011;64278;45.642;13.756;2023-02-15T08:24:18;12.55;;;11.55;;
15608;SDS011;64278;45.642;13.756;2023-02-15T08:26:45;13.52;;;12.43;;
15608;SDS011;64278;45.642;13.756;2023-02-15T08:29:13;14.18;;;12.82;;
15608;SDS011;64278;45.642;13.756;2023-02-15T08:31:39;12.85;;;11.75;;
15608;SDS011;64278;45.642;13.756;2023-02-15T08:34:06;15.02;;;13.55;;
15608;SDS011;64278;45.642;13.756;2023-02-15T08:36:34;14.27;;;12.98;;
15608;SDS011;64278;45.642;13.756;2023-02-15T08:39:00;14.82;;;13.52;;
15608;SDS011;64278;45.642;13.756;2023-02-15T08:41:29;14.15;;;12.80;;
15608;SDS011;64278;45.642;13.756;2023-02-15T08:43:57;14.88;;;13.57;;
15608;SDS011;64278;45.642;13.756;2023-02-15T08:46:25;15.05;;;13.60;;
15608;SDS011;64278;45.642;13.756;2023-02-15T08:48:52;14.57;;;13.10;;
15608;SDS011;64278;45.642;13.756;2023-02-15T08:51:19;14.60;;;13.10;;
15608;SDS011;64278;45.642;13.756;2023-02-15T08:53:47;13.57;;;12.38;;
15608;SDS011;64278;45.642;13.756;2023-02-15T08:56:15;14.20;;;13.00;;
15608;SDS011;64278;45.642;13.756;2023-02-15T08:58:42;15.27;;;13.88;;
15608;SDS011;64278;45.642;13.756;2023-02-15T09:01:09;16.77;;;15.27;;
15608;SDS011;64278;45.642;13.756;2023-02-15T09:03:39;17.58;;;15.95;;
15608;SDS011;64278;45.642;13.756;2023-02-15T09:06:05;20.63;;;18.73;;
15608;SDS011;64278;45.642;13.756;2023-02-15T09:08:31;29.48;;;26.60;;
15608;SDS011;64278;45.642;13.756;2023-02-15T09:11:07;46.08;;;41.55;;
15608;SDS011;64278;45.642;13.756;2023-02-15T09:13:34;47.15;;;42.20;;
15608;SDS011;64278;45.642;13.756;2023-02-15T09:16:03;42.70;;;38.60;;
15608;SDS011;64278;45.642;13.756;2023-02-15T09:18:34;43.85;;;39.85;;
15608;SDS011;64278;45.642;13.756;2023-02-15T09:21:15;43.58;;;38.92;;
15608;SDS011;64278;45.642;13.756;2023-02-15T09:23:43;44.95;;;40.40;;
15608;SDS011;64278;45.642;13.756;2023-02-15T09:26:11;49.47;;;44.30;;
15608;SDS011;64278;45.642;13.756;2023-02-15T09:28:39;39.15;;;35.25;;
15608;SDS011;64278;45.642;13.756;2023-02-15T09:31:15;38.72;;;34.60;;
15608;SDS011;64278;45.642;13.756;2023-02-15T09:33:43;36.83;;;33.17;;
15608;SDS011;64278;45.642;13.756;2023-02-15T09:36:14;38.92;;;34.85;;
15608;SDS011;64278;45.642;13.756;2023-02-15T09:38:42;37.58;;;33.58;;
15608;SDS011;64278;45.642;13.756;2023-02-15T09:41:15;35.15;;;31.55;;
15608;SDS011;64278;45.642;13.756;2023-02-15T09:49:54;39.40;;;34.78;;
15608;SDS011;64278;45.642;13.756;2023-02-15T10:10:22;29.80;;;26.77;;
15608;SDS011;64278;45.642;13.756;2023-02-15T10:19:18;27.23;;;24.42;;
15608;SDS011;64278;45.642;13.756;2023-02-15T10:24:26;25.70;;;22.95;;
15608;SDS011;64278;45.642;13.756;2023-02-15T10:27:02;23.20;;;20.80;;
15608;SDS011;64278;45.642;13.756;2023-02-15T10:30:08;21.70;;;19.40;;
15608;SDS011;64278;45.642;13.756;2023-02-15T10:32:59;21.80;;;19.48;;
15608;SDS011;64278;45.642;13.756;2023-02-15T10:38:08;21.38;;;19.10;;
15608;SDS011;64278;45.642;13.756;2023-02-15T10:49:33;19.05;;;17.08;;
15608;SDS011;64278;45.642;13.756;2023-02-15T11:03:04;20.10;;;17.00;;
15608;SDS011;64278;45.642;13.756;2023-02-15T11:08:45;17.35;;;15.65;;
15608;SDS011;64278;45.642;13.756;2023-02-15T11:11:56;18.73;;;16.77;;
15608;SDS011;64278;45.642;13.756;2023-02-15T11:14:23;16.35;;;14.73;;
15608;SDS011;64278;45.642;13.756;2023-02-15T11:17:14;18.58;;;16.77;;
15608;SDS011;64278;45.642;13.756;2023-02-15T11:19:54;17.05;;;15.25;;
15608;SDS011;64278;45.642;13.756;2023-02-15T11:22:41;16.13;;;14.55;;
15608;SDS011;64278;45.642;13.756;2023-02-15T11:25:17;15.65;;;14.07;;
15608;SDS011;64278;45.642;13.756;2023-02-15T11:27:46;15.48;;;13.98;;
15608;SDS011;64278;45.642;13.756;2023-02-15T11:30:14;16.70;;;15.10;;
15608;SDS011;64278;45.642;13.756;2023-02-15T11:32:48;15.73;;;14.23;;
15608;SDS011;64278;45.642;13.756;2023-02-15T11:35:24;17.35;;;15.32;;
15608;SDS011;64278;45.642;13.756;2023-02-15T11:38:14;14.60;;;13.20;;
15608;SDS011;64278;45.642;13.756;2023-02-15T11:40:49;16.98;;;15.30;;
15608;SDS011;64278;45.642;13.756;2023-02-15T11:46:03;14.98;;;13.65;;
15608;SDS011;64278;45.642;13.756;2023-02-15T11:48:29;14.93;;;13.45;;
15608;SDS011;64278;45.642;13.756;2023-02-15T11:50:56;14.50;;;13.18;;
15608;SDS011;64278;45.642;13.756;2023-02-15T11:53:22;14.80;;;13.32;;
15608;SDS011;64278;45.642;13.756;2023-02-15T11:55:51;14.85;;;13.38;;
15608;SDS011;64278;45.642;13.756;2023-02-15T11:58:29;14.80;;;13.40;;
15608;SDS011;64278;45.642;13.756;2023-02-15T12:01:11;15.52;;;14.13;;
15608;SDS011;64278;45.642;13.756;2023-02-15T12:06:18;15.10;;;13.75;;
15608;SDS011;64278;45.642;13.756;2023-02-15T12:09:01;14.98;;;13.60;;
15608;SDS011;64278;45.642;13.756;2023-02-15T12:11:38;15.60;;;14.10;;
15608;SDS011;64278;45.642;13.756;2023-02-15T12:14:09;14.52;;;13.13;;
15608;SDS011;64278;45.642;13.756;2023-02-15T12:16:40;14.68;;;13.18;;
15608;SDS011;64278;45.642;13.756;2023-02-15T12:19:10;13.80;;;12.60;;
15608;SDS011;64278;45.642;13.756;2023-02-15T12:21:43;13.32;;;12.15;;
15608;SDS011;64278;45.642;13.756;2023-02-15T12:24:17;14.65;;;13.23;;
15608;SDS011;64278;45.642;13.756;2023-02-15T12:26:56;14.25;;;12.85;;
15608;SDS011;64278;45.642;13.756;2023-02-15T12:29:52;14.55;;;13.25;;
15608;SDS011;64278;45.642;13.756;2023-02-15T12:32:36;13.23;;;11.93;;
15608;SDS011;64278;45.642;13.756;2023-02-15T12:38:00;14.40;;;13.07;;
15608;SDS011;64278;45.642;13.756;2023-02-15T12:40:29;13.40;;;12.00;;
15608;SDS011;64278;45.642;13.756;2023-02-15T12:42:56;12.82;;;11.63;;
15608;SDS011;64278;45.642;13.756;2023-02-15T12:45:26;14.15;;;12.85;;
15608;SDS011;64278;45.642;13.756;2023-02-15T12:50:39;14.48;;;13.18;;
15608;SDS011;64278;45.642;13.756;2023-02-15T12:53:07;15.18;;;13.77;;
15608;SDS011;64278;45.642;13.756;2023-02-15T12:55:38;15.07;;;13.50;;
15608;SDS011;64278;45.642;13.756;2023-02-15T12:58:17;14.75;;;13.35;;
15608;SDS011;64278;45.642;13.756;2023-02-15T13:00:45;15.25;;;13.73;;
15608;SDS011;64278;45.642;13.756;2023-02-15T13:03:17;17.15;;;14.35;;
15608;SDS011;64278;45.642;13.756;2023-02-15T13:05:46;14.70;;;13.30;;
15608;SDS011;64278;45.642;13.756;2023-02-15T13:13:33;14.23;;;12.93;;
15608;SDS011;64278;45.642;13.756;2023-02-15T13:16:05;14.57;;;13.25;;
15608;SDS011;64278;45.642;13.756;2023-02-15T13:18:36;14.25;;;12.98;;
15608;SDS011;64278;45.642;13.756;2023-02-15T13:21:06;14.35;;;12.95;;
15608;SDS011;64278;45.642;13.756;2023-02-15T13:23:35;16.45;;;12.88;;
15608;SDS011;64278;45.642;13.756;2023-02-15T13:26:03;13.55;;;12.25;;
15608;SDS011;64278;45.642;13.756;2023-02-15T13:28:41;13.80;;;12.50;;
15608;SDS011;64278;45.642;13.756;2023-02-15T13:31:19;14.40;;;12.82;;
15608;SDS011;64278;45.642;13.756;2023-02-15T13:33:51;14.57;;;12.45;;
15608;SDS011;64278;45.642;13.756;2023-02-15T13:36:26;13.57;;;12.35;;
15608;SDS011;64278;45.642;13.756;2023-02-15T13:41:48;13.98;;;12.55;;
15608;SDS011;64278;45.642;13.756;2023-02-15T13:47:32;13.02;;;11.77;;
15608;SDS011;64278;45.642;13.756;2023-02-15T13:55:55;12.07;;;10.70;;
15608;SDS011;64278;45.642;13.756;2023-02-15T13:58:55;13.25;;;11.95;;
15608;SDS011;64278;45.642;13.756;2023-02-15T14:15:12;13.43;;;12.13;;
15608;SDS011;64278;45.642;13.756;2023-02-15T14:20:35;13.02;;;11.85;;
15608;SDS011;64278;45.642;13.756;2023-02-15T14:25:54;12.43;;;11.23;;
15608;SDS011;64278;45.642;13.756;2023-02-15T14:29:06;12.23;;;11.07;;
15608;SDS011;64278;45.642;13.756;2023-02-15T14:31:54;12.77;;;11.32;;
15608;SDS011;64278;45.642;13.756;2023-02-15T14:36:49;12.30;;;11.18;;
15608;SDS011;64278;45.642;13.756;2023-02-15T14:39:36;12.63;;;11.32;;
15608;SDS011;64278;45.642;13.756;2023-02-15T14:48:33;12.45;;;11.25;;
15608;SDS011;64278;45.642;13.756;2023-02-15T14:51:05;12.98;;;11.77;;
15608;SDS011;64278;45.642;13.756;2023-02-15T14:53:37;11.05;;;10.05;;
15608;SDS011;64278;45.642;13.756;2023-02-15T14:56:25;12.23;;;11.13;;
15608;SDS011;64278;45.642;13.756;2023-02-15T15:01:28;12.27;;;11.23;;
15608;SDS011;64278;45.642;13.756;2023-02-15T15:04:09;12.45;;;11.18;;
15608;SDS011;64278;45.642;13.756;2023-02-15T15:06:57;12.52;;;11.40;;
15608;SDS011;64278;45.642;13.756;2023-02-15T15:09:33;12.57;;;11.38;;
15608;SDS011;64278;45.642;13.756;2023-02-15T15:14:40;12.35;;;11.15;;
15608;SDS011;64278;45.642;13.756;2023-02-15T15:17:09;11.88;;;10.88;;
15608;SDS011;64278;45.642;13.756;2023-02-15T15:22:30;12.52;;;11.30;;
15608;SDS011;64278;45.642;13.756;2023-02-15T15:24:57;11.75;;;10.68;;
15608;SDS011;64278;45.642;13.756;2023-02-15T15:46:28;13.68;;;12.50;;
15608;SDS011;64278;45.642;13.756;2023-02-15T15:49:12;14.18;;;12.85;;
15608;SDS011;64278;45.642;13.756;2023-02-15T15:51:41;13.15;;;11.90;;
15608;SDS011;64278;45.642;13.756;2023-02-15T15:54:12;13.52;;;12.40;;
15608;SDS011;64278;45.642;13.756;2023-02-15T15:57:33;13.05;;;11.93;;
15608;SDS011;64278;45.642;13.756;2023-02-15T15:59:48;14.00;;;12.57;;
15608;SDS011;64278;45.642;13.756;2023-02-15T16:02:15;12.70;;;11.70;;
15608;SDS011;64278;45.642;13.756;2023-02-15T16:04:42;12.38;;;11.18;;
15608;SDS011;64278;45.642;13.756;2023-02-15T16:09:59;13.23;;;12.02;;
15608;SDS011;64278;45.642;13.756;2023-02-15T16:12:32;13.38;;;12.20;;
15608;SDS011;64278;45.642;13.756;2023-02-15T16:15:16;13.43;;;12.30;;
15608;SDS011;64278;45.642;13.756;2023-02-15T16:17:45;13.60;;;12.50;;
15608;SDS011;64278;45.642;13.756;2023-02-15T16:20:15;13.65;;;12.45;;
15608;SDS011;64278;45.642;13.756;2023-02-15T16:22:44;12.13;;;11.07;;
15608;SDS011;64278;45.642;13.756;2023-02-15T16:28:34;12.65;;;11.45;;
15608;SDS011;64278;45.642;13.756;2023-02-15T16:31:26;12.57;;;11.55;;
15608;SDS011;64278;45.642;13.756;2023-02-15T16:33:47;11.82;;;10.82;;
15608;SDS011;64278;45.642;13.756;2023-02-15T16:41:13;12.40;;;11.32;;
15608;SDS011;64278;45.642;13.756;2023-02-15T16:43:42;15.55;;;14.15;;
15608;SDS011;64278;45.642;13.756;2023-02-15T16:46:12;17.08;;;15.57;;
15608;SDS011;64278;45.642;13.756;2023-02-15T16:48:45;22.65;;;20.60;;
15608;SDS011;64278;45.642;13.756;2023-02-15T16:51:23;20.80;;;18.88;;
15608;SDS011;64278;45.642;13.756;2023-02-15T16:53:51;20.50;;;18.35;;
15608;SDS011;64278;45.642;13.756;2023-02-15T16:56:29;17.27;;;15.77;;
15608;SDS011;64278;45.642;13.756;2023-02-15T16:58:56;17.13;;;15.68;;
15608;SDS011;64278;45.642;13.756;2023-02-15T17:01:24;16.55;;;15.05;;
15608;SDS011;64278;45.642;13.756;2023-02-15T17:04:11;16.08;;;14.65;;
15608;SDS011;64278;45.642;13.756;2023-02-15T17:06:37;15.60;;;14.23;;
15608;SDS011;64278;45.642;13.756;2023-02-15T17:09:04;14.52;;;13.13;;
15608;SDS011;64278;45.642;13.756;2023-02-15T17:11:41;14.30;;;13.05;;
15608;SDS011;64278;45.642;13.756;2023-02-15T17:16:41;13.02;;;11.82;;
15608;SDS011;64278;45.642;13.756;2023-02-15T17:19:13;13.73;;;12.55;;
15608;SDS011;64278;45.642;13.756;2023-02-15T17:22:00;13.40;;;12.20;;
15608;SDS011;64278;45.642;13.756;2023-02-15T17:24:41;14.27;;;12.00;;
15608;SDS011;64278;45.642;13.756;2023-02-15T17:27:14;13.30;;;12.05;;
15608;SDS011;64278;45.642;13.756;2023-02-15T17:29:44;13.40;;;12.20;;
15608;SDS011;64278;45.642;13.756;2023-02-15T17:32:18;13.32;;;12.15;;
15608;SDS011;64278;45.642;13.756;2023-02-15T17:37:29;14.02;;;12.88;;
15608;SDS011;64278;45.642;13.756;2023-02-15T17:40:25;12.48;;;11.48;;
15608;SDS011;64278;45.642;13.756;2023-02-15T17:42:53;13.48;;;12.27;;
15608;SDS011;64278;45.642;13.756;2023-02-15T17:45:20;14.32;;;13.07;;
15608;SDS011;64278;45.642;13.756;2023-02-15T17:47:47;12.35;;;11.25;;
15608;SDS011;64278;45.642;13.756;2023-02-15T17:50:21;14.40;;;13.07;;